Time;durP1;ratioP1;P1;durP2;ratioP2;P2;SDS_P1;SDS_P2;PMS_P1;PMS_P2;Temp;Humidity;BMP_temperature;BMP_pressure;BME280_temperature;BME280_humidity;BME280_pressure;Samples;Min_cycle;Max_cycle;Signal;HPM_P1;HPM_P2
2021/07/12 00:00:17;;;;;;;5.23;4.83;;;20.80;99.90;;;;;;5015266;28;20202;-70
2021/07/12 00:02:42;;;;;;;5.03;4.63;;;20.80;99.90;;;;;;5015059;28;20406;-70
2021/07/12 00:05:09;;;;;;;5.33;4.93;;;20.70;99.90;;;;;;5015023;28;20398;-70
2021/07/12 00:07:35;;;;;;;8.77;5.60;;;20.70;99.90;;;;;;5014961;28;20208;-71
2021/07/12 00:10:01;;;;;;;5.53;5.13;;;20.70;99.90;;;;;;5014821;28;20836;-70
2021/07/12 00:12:27;;;;;;;5.70;5.20;;;20.60;99.90;;;;;;5014992;28;20427;-71
2021/07/12 00:14:52;;;;;;;5.97;5.30;;;20.60;99.90;;;;;;5015258;28;20438;-71
2021/07/12 00:17:18;;;;;;;6.47;5.97;;;20.60;99.90;;;;;;5015266;28;20205;-71
2021/07/12 00:19:43;;;;;;;5.60;5.20;;;20.60;99.90;;;;;;4997254;28;20206;-71
2021/07/12 00:22:09;;;;;;;7.80;5.60;;;20.60;99.90;;;;;;5014461;28;20170;-70
2021/07/12 00:24:34;;;;;;;5.37;4.87;;;20.50;99.90;;;;;;5014676;28;20202;-71
2021/07/12 00:27:00;;;;;;;5.90;5.30;;;20.50;99.90;;;;;;5014405;28;20265;-71
2021/07/12 00:29:25;;;;;;;5.87;5.37;;;20.50;99.90;;;;;;5014440;28;20734;-70
2021/07/12 00:31:50;;;;;;;5.30;4.90;;;20.60;99.90;;;;;;5014351;28;20199;-71
2021/07/12 00:34:16;;;;;;;5.77;5.33;;;20.50;99.90;;;;;;5014270;28;20190;-71
2021/07/12 00:36:41;;;;;;;5.90;5.50;;;20.50;99.90;;;;;;5014293;28;20173;-71
2021/07/12 00:39:07;;;;;;;5.50;5.03;;;20.50;99.90;;;;;;5014226;28;20209;-70
2021/07/12 00:41:35;;;;;;;6.90;6.37;;;20.50;99.90;;;;;;5014159;28;20241;-70
2021/07/12 00:44:01;;;;;;;6.00;4.77;;;20.40;99.90;;;;;;5014077;28;20656;-70
2021/07/12 00:46:26;;;;;;;6.60;6.10;;;20.40;99.90;;;;;;5014175;28;20496;-70
2021/07/12 00:48:52;;;;;;;5.40;5.00;;;20.40;99.90;;;;;;5013930;28;20195;-70
2021/07/12 00:51:17;;;;;;;6.43;5.20;;;20.40;99.90;;;;;;5013987;28;20673;-71
2021/07/12 00:53:43;;;;;;;5.83;5.43;;;20.30;99.90;;;;;;5014002;28;20175;-70
2021/07/12 00:56:08;;;;;;;6.07;5.63;;;20.40;99.90;;;;;;5013877;28;20178;-70
2021/07/12 00:58:34;;;;;;;5.97;5.50;;;20.30;99.90;;;;;;5013590;28;20240;-70
2021/07/12 01:01:02;;;;;;;5.70;5.30;;;20.30;99.90;;;;;;5013961;28;20180;-71
2021/07/12 01:03:28;;;;;;;5.00;4.50;;;20.30;99.90;;;;;;5013805;28;20178;-70
2021/07/12 01:05:56;;;;;;;6.10;5.70;;;20.30;99.90;;;;;;5013828;28;20465;-70
2021/07/12 01:08:21;;;;;;;5.73;5.33;;;20.30;99.90;;;;;;5013610;28;20600;-71
2021/07/12 01:11:00;;;;;;;5.50;5.10;;;20.30;99.90;;;;;;5013685;28;20417;-71
2021/07/12 01:13:45;;;;;;;5.43;5.03;;;20.30;99.90;;;;;;5012462;28;20213;-71
2021/07/12 01:16:35;;;;;;;5.73;5.23;;;20.30;99.90;;;;;;5013482;28;20960;-72
2021/07/12 01:19:19;;;;;;;6.10;5.50;;;20.30;99.90;;;;;;5013246;28;20831;-71
2021/07/12 01:22:06;;;;;;;5.33;4.93;;;20.30;99.90;;;;;;5013516;28;21076;-71
2021/07/12 01:25:22;;;;;;;5.70;5.30;;;20.30;99.90;;;;;;5013352;28;20498;-70
2021/07/12 01:28:12;;;;;;;5.60;5.10;;;20.30;99.90;;;;;;5013172;28;20400;-70
2021/07/12 01:31:17;;;;;;;6.20;5.70;;;20.30;99.90;;;;;;5013407;28;20405;-70
2021/07/12 01:33:49;;;;;;;6.10;5.70;;;20.20;99.90;;;;;;5012265;28;20410;-71
2021/07/12 01:36:38;;;;;;;5.73;5.23;;;20.20;99.90;;;;;;5013394;28;20542;-69
2021/07/12 01:39:18;;;;;;;5.37;4.97;;;20.20;99.90;;;;;;5013229;28;20463;-70
2021/07/12 01:42:08;;;;;;;6.20;5.80;;;20.20;99.90;;;;;;5013271;28;20411;-73
2021/07/12 01:44:36;;;;;;;6.10;5.67;;;20.20;99.90;;;;;;5013174;28;20489;-68
2021/07/12 01:47:08;;;;;;;7.37;6.67;;;20.20;99.90;;;;;;5012935;28;20440;-70
2021/07/12 01:49:47;;;;;;;6.33;5.77;;;20.20;99.90;;;;;;5012974;28;20837;-71
2021/07/12 01:52:38;;;;;;;7.10;6.07;;;20.10;99.90;;;;;;5012938;28;20405;-72
2021/07/12 01:55:06;;;;;;;6.50;5.90;;;20.20;99.90;;;;;;5013207;28;20507;-70
2021/07/12 01:57:38;;;;;;;6.40;6.00;;;20.20;99.90;;;;;;5012919;28;20407;-71
2021/07/12 02:00:10;;;;;;;7.67;6.90;;;20.20;99.90;;;;;;5012736;28;20545;-70
2021/07/12 02:02:40;;;;;;;5.67;5.30;;;20.10;99.90;;;;;;5012665;28;20924;-70
2021/07/12 02:05:19;;;;;;;6.83;6.33;;;20.20;99.90;;;;;;5109730;27;20579;-69
2021/07/12 02:07:46;;;;;;;7.60;7.00;;;20.10;99.90;;;;;;5109701;28;20821;-71
2021/07/12 02:10:13;;;;;;;7.40;6.67;;;20.20;99.90;;;;;;5109802;28;20421;-71
2021/07/12 02:12:41;;;;;;;7.10;6.50;;;20.20;99.90;;;;;;5109695;28;20416;-71
2021/07/12 02:15:07;;;;;;;7.07;6.47;;;20.10;99.90;;;;;;5109881;28;20391;-71
2021/07/12 02:17:33;;;;;;;8.03;6.00;;;20.10;99.90;;;;;;5108344;28;20398;-71
2021/07/12 02:20:00;;;;;;;7.00;6.40;;;20.10;99.90;;;;;;5109669;28;20422;-70
2021/07/12 02:22:28;;;;;;;6.27;5.77;;;20.00;99.90;;;;;;5109513;28;20400;-71
2021/07/12 02:24:56;;;;;;;7.77;6.53;;;20.00;99.90;;;;;;5107879;28;20451;-70
2021/07/12 02:27:23;;;;;;;6.47;5.97;;;20.00;99.90;;;;;;5109419;28;20457;-71
2021/07/12 02:29:50;;;;;;;5.67;5.27;;;20.00;99.90;;;;;;5109229;28;20422;-70
2021/07/12 02:32:18;;;;;;;7.27;6.77;;;20.00;99.90;;;;;;5109230;28;20405;-70
2021/07/12 02:34:43;;;;;;;7.30;6.60;;;20.00;99.90;;;;;;5109301;28;20902;-70
2021/07/12 02:37:10;;;;;;;7.60;7.10;;;20.00;99.90;;;;;;5109130;28;20755;-71
2021/07/12 02:39:36;;;;;;;7.73;6.77;;;20.00;99.90;;;;;;5109493;28;20184;-71
2021/07/12 02:42:02;;;;;;;7.10;6.60;;;20.00;99.90;;;;;;5109636;28;20409;-71
2021/07/12 02:44:30;;;;;;;6.10;5.60;;;20.00;99.90;;;;;;5109910;28;20456;-71
2021/07/12 02:46:58;;;;;;;7.00;6.50;;;20.00;99.90;;;;;;5109662;28;20464;-71
2021/07/12 02:49:23;;;;;;;7.60;7.00;;;20.00;99.90;;;;;;5109693;28;20414;-70
2021/07/12 02:52:01;;;;;;;6.80;6.40;;;20.00;99.90;;;;;;5109667;28;20460;-70
2021/07/12 02:54:31;;;;;;;7.57;7.03;;;20.00;99.90;;;;;;5109300;28;20198;-71
2021/07/12 02:56:57;;;;;;;6.57;6.17;;;20.00;99.90;;;;;;5108824;28;20403;-71
2021/07/12 02:59:23;;;;;;;7.30;6.80;;;20.00;99.90;;;;;;5109294;28;20481;-71
2021/07/12 03:01:49;;;;;;;7.80;7.20;;;19.90;99.90;;;;;;5109039;28;20181;-70
2021/07/12 03:04:14;;;;;;;6.23;5.80;;;20.00;99.90;;;;;;5108693;28;20453;-70
2021/07/12 03:06:43;;;;;;;8.20;7.50;;;20.00;99.90;;;;;;5108673;28;20672;-70
2021/07/12 03:09:13;;;;;;;7.63;7.10;;;20.00;99.90;;;;;;5108553;28;20275;-70
2021/07/12 03:11:41;;;;;;;7.60;7.00;;;20.00;99.90;;;;;;5107148;28;20771;-70
2021/07/12 03:14:29;;;;;;;7.80;7.20;;;20.00;99.90;;;;;;5108722;28;20402;-71
2021/07/12 03:16:55;;;;;;;6.77;6.27;;;20.00;99.90;;;;;;5094716;28;20403;-70
2021/07/12 03:19:27;;;;;;;7.30;6.77;;;20.00;99.90;;;;;;5094699;28;20426;-70
2021/07/12 03:21:55;;;;;;;6.97;6.47;;;20.00;99.90;;;;;;5095010;28;20552;-71
2021/07/12 03:24:21;;;;;;;7.27;6.77;;;20.00;99.90;;;;;;5094773;28;20457;-69
2021/07/12 03:26:51;;;;;;;7.70;7.10;;;20.00;99.90;;;;;;5094679;28;20403;-70
2021/07/12 03:29:17;;;;;;;7.77;7.10;;;20.00;99.90;;;;;;5095033;28;20417;-70
2021/07/12 03:31:43;;;;;;;6.80;6.30;;;20.10;99.90;;;;;;5093729;28;20403;-69
2021/07/12 03:34:12;;;;;;;7.13;6.63;;;20.10;99.90;;;;;;5094968;28;20179;-70
2021/07/12 03:36:38;;;;;;;7.80;7.10;;;20.10;99.90;;;;;;5094848;28;20410;-70
2021/07/12 03:39:05;;;;;;;8.40;7.60;;;20.00;99.90;;;;;;5094513;28;20815;-70
2021/07/12 03:41:31;;;;;;;9.07;8.27;;;20.00;99.90;;;;;;5094325;28;20396;-70
2021/07/12 03:43:58;;;;;;;8.07;7.37;;;20.00;99.90;;;;;;5094308;28;20454;-71
2021/07/12 03:46:23;;;;;;;8.30;7.60;;;20.00;99.90;;;;;;5094379;28;20167;-70
2021/07/12 03:48:49;;;;;;;6.90;6.50;;;20.00;99.90;;;;;;5094201;28;20432;-70
2021/07/12 03:51:28;;;;;;;7.67;7.07;;;20.00;99.90;;;;;;5094198;28;20255;-70
2021/07/12 03:53:54;;;;;;;7.83;7.07;;;20.00;99.90;;;;;;5094319;28;20661;-70
2021/07/12 03:56:20;;;;;;;7.97;7.37;;;20.00;99.90;;;;;;5094110;28;20467;-70
2021/07/12 03:58:46;;;;;;;7.40;6.70;;;20.00;99.90;;;;;;5093799;28;20463;-70
2021/07/12 04:01:19;;;;;;;8.80;8.00;;;20.10;99.90;;;;;;5094317;28;20440;-70
2021/07/12 04:03:48;;;;;;;7.40;6.87;;;20.00;99.90;;;;;;5093882;28;20687;-70
2021/07/12 04:06:13;;;;;;;8.23;7.63;;;20.00;99.90;;;;;;5093915;28;20405;-70
2021/07/12 04:08:38;;;;;;;9.43;7.57;;;20.00;99.90;;;;;;5093756;28;20440;-70
2021/07/12 04:11:04;;;;;;;8.70;7.50;;;20.00;99.90;;;;;;5093591;28;20203;-70
2021/07/12 04:13:29;;;;;;;7.50;7.00;;;20.10;99.90;;;;;;5093789;28;20173;-70
2021/07/12 04:15:55;;;;;;;7.50;6.90;;;20.10;99.90;;;;;;5093694;28;20234;-70
2021/07/12 04:18:20;;;;;;;8.13;7.43;;;20.10;99.90;;;;;;5093633;28;20194;-70
2021/07/12 04:20:47;;;;;;;7.57;6.97;;;20.10;99.90;;;;;;5093809;28;20782;-70
2021/07/12 04:23:13;;;;;;;8.20;7.60;;;20.10;99.90;;;;;;5093461;28;20566;-70
2021/07/12 04:25:38;;;;;;;8.37;7.67;;;20.10;99.90;;;;;;5093627;28;20406;-70
2021/07/12 04:28:04;;;;;;;7.07;6.50;;;20.10;99.90;;;;;;5092330;28;20176;-69
2021/07/12 04:30:43;;;;;;;7.80;7.20;;;20.20;99.90;;;;;;5093449;28;20208;-71
2021/07/12 04:33:09;;;;;;;9.10;7.80;;;20.20;99.90;;;;;;5092256;28;20681;-71
2021/07/12 04:35:34;;;;;;;8.00;7.30;;;20.20;99.90;;;;;;5093431;28;20423;-71
2021/07/12 04:38:00;;;;;;;6.77;6.27;;;20.30;99.90;;;;;;5093168;28;20177;-70
2021/07/12 04:40:25;;;;;;;8.20;7.63;;;20.30;99.90;;;;;;5093090;28;20642;-71
2021/07/12 04:42:50;;;;;;;7.00;6.40;;;20.30;99.90;;;;;;5093071;28;20180;-70
2021/07/12 04:45:16;;;;;;;7.67;7.17;;;20.30;99.90;;;;;;5093150;28;20168;-71
2021/07/12 04:47:42;;;;;;;7.20;6.63;;;20.30;99.90;;;;;;5093182;28;20315;-71
2021/07/12 04:50:09;;;;;;;8.57;7.97;;;20.30;99.90;;;;;;5093093;28;20192;-71
2021/07/12 04:52:35;;;;;;;7.53;7.03;;;20.30;99.90;;;;;;5092830;28;20176;-70
2021/07/12 04:55:02;;;;;;;8.20;7.43;;;20.30;99.90;;;;;;5092815;28;20412;-71
2021/07/12 04:57:28;;;;;;;7.87;7.27;;;20.30;99.90;;;;;;5092763;28;20477;-71
2021/07/12 04:59:53;;;;;;;7.70;7.17;;;20.30;99.90;;;;;;5092971;28;20427;-71
2021/07/12 05:02:19;;;;;;;6.97;6.50;;;20.40;99.90;;;;;;5092762;28;20656;-71
2021/07/12 05:04:44;;;;;;;7.87;7.27;;;20.40;99.90;;;;;;5092612;28;20260;-71
2021/07/12 05:07:11;;;;;;;8.07;7.47;;;20.40;99.90;;;;;;5092377;28;20413;-70
2021/07/12 05:09:37;;;;;;;7.03;6.53;;;20.40;99.90;;;;;;5092577;28;20221;-70
2021/07/12 05:12:08;;;;;;;8.80;8.10;;;20.40;99.90;;;;;;5092662;28;20846;-71
2021/07/12 05:14:35;;;;;;;7.27;6.77;;;20.40;99.90;;;;;;5092737;28;20561;-70
2021/07/12 05:17:00;;;;;;;8.40;7.70;;;20.40;99.90;;;;;;5092422;28;20419;-72
2021/07/12 05:19:26;;;;;;;7.93;7.23;;;20.40;99.90;;;;;;5092371;28;20482;-71
2021/07/12 05:21:51;;;;;;;7.80;7.03;;;20.40;99.90;;;;;;5092857;28;20188;-71
2021/07/12 05:24:17;;;;;;;7.40;6.80;;;20.50;99.90;;;;;;5092454;28;20219;-71
2021/07/12 05:26:42;;;;;;;7.70;7.10;;;20.50;99.90;;;;;;5092448;28;20188;-71
2021/07/12 05:29:08;;;;;;;8.50;7.80;;;20.50;99.90;;;;;;5092274;28;20426;-71
2021/07/12 05:31:34;;;;;;;8.20;7.67;;;20.50;99.90;;;;;;5092270;28;20531;-71
2021/07/12 05:33:59;;;;;;;7.67;7.07;;;20.50;99.90;;;;;;5092288;28;20187;-71
2021/07/12 05:36:24;;;;;;;8.77;8.07;;;20.60;99.90;;;;;;5092150;28;20168;-71
2021/07/12 05:38:50;;;;;;;7.80;7.20;;;20.60;99.90;;;;;;5091604;28;20203;-70
2021/07/12 05:41:15;;;;;;;8.87;8.20;;;20.70;99.90;;;;;;5092066;28;20176;-70
2021/07/12 05:43:41;;;;;;;7.90;7.23;;;20.70;99.90;;;;;;5091697;28;20636;-72
2021/07/12 05:46:06;;;;;;;7.87;7.37;;;20.70;99.90;;;;;;5092284;28;20165;-71
2021/07/12 05:48:32;;;;;;;7.50;6.90;;;20.70;99.90;;;;;;5091792;28;20228;-71
2021/07/12 05:50:58;;;;;;;7.90;7.33;;;20.70;99.90;;;;;;5092074;28;20175;-71
2021/07/12 05:53:24;;;;;;;7.90;7.30;;;20.60;99.90;;;;;;5092041;28;20405;-71
2021/07/12 05:55:49;;;;;;;8.27;7.67;;;20.60;99.90;;;;;;5092212;28;20228;-71
2021/07/12 05:58:15;;;;;;;8.67;7.90;;;20.60;99.90;;;;;;5091993;28;20615;-71
2021/07/12 06:00:41;;;;;;;9.63;8.93;;;20.60;99.90;;;;;;5091983;28;20172;-71
2021/07/12 06:03:06;;;;;;;10.13;9.33;;;20.70;99.90;;;;;;5091673;28;20191;-72
2021/07/12 06:05:32;;;;;;;8.00;7.40;;;20.70;99.90;;;;;;5091934;28;20718;-69
2021/07/12 06:07:58;;;;;;;9.23;8.53;;;20.70;99.90;;;;;;5091852;28;20176;-69
2021/07/12 06:10:23;;;;;;;8.80;8.10;;;20.70;99.90;;;;;;5092174;28;20176;-69
2021/07/12 06:12:49;;;;;;;8.93;8.23;;;20.70;99.90;;;;;;5091978;28;20173;-69
2021/07/12 06:15:14;;;;;;;10.03;9.33;;;20.60;99.90;;;;;;5092061;28;20650;-69
2021/07/12 06:17:40;;;;;;;8.80;8.10;;;20.60;99.90;;;;;;5092339;28;20187;-69
2021/07/12 06:20:07;;;;;;;9.90;9.00;;;20.60;99.90;;;;;;5092129;28;20194;-69
2021/07/12 06:22:34;;;;;;;8.03;7.43;;;20.70;99.90;;;;;;5090319;28;20175;-69
2021/07/12 06:24:59;;;;;;;11.13;8.20;;;20.70;99.90;;;;;;5091887;28;20448;-69
2021/07/12 06:27:25;;;;;;;10.37;9.37;;;20.70;99.90;;;;;;5091552;28;20415;-68
2021/07/12 06:29:51;;;;;;;7.53;6.80;;;20.70;99.90;;;;;;5091543;28;20615;-68
2021/07/12 06:32:16;;;;;;;8.93;8.13;;;20.80;99.90;;;;;;5091763;28;20170;-68
2021/07/12 06:34:42;;;;;;;9.77;8.83;;;20.70;99.90;;;;;;5091756;28;20626;-71
2021/07/12 06:37:07;;;;;;;9.03;8.33;;;20.70;99.90;;;;;;5092007;28;20255;-69
2021/07/12 06:39:33;;;;;;;11.10;10.27;;;20.60;99.90;;;;;;5091951;28;20231;-69
2021/07/12 06:41:58;;;;;;;12.43;11.33;;;20.50;99.90;;;;;;5091738;28;20177;-70
2021/07/12 06:44:24;;;;;;;12.03;10.83;;;20.50;99.90;;;;;;5091749;28;20199;-68
2021/07/12 06:46:50;;;;;;;11.50;10.50;;;20.60;99.90;;;;;;5091506;28;20556;-68
2021/07/12 06:49:15;;;;;;;11.47;10.67;;;20.80;99.90;;;;;;5090256;28;20185;-68
2021/07/12 06:51:41;;;;;;;11.30;10.10;;;20.80;99.90;;;;;;5094537;28;20712;-69
2021/07/12 06:54:07;;;;;;;10.93;9.93;;;20.90;99.90;;;;;;5095403;28;20682;-70
2021/07/12 06:56:33;;;;;;;9.97;9.07;;;21.20;99.90;;;;;;5095176;28;20201;-70
2021/07/12 06:58:58;;;;;;;8.57;7.20;;;22.50;99.90;;;;;;5095070;28;20192;-70
2021/07/12 07:01:24;;;;;;;9.10;7.20;;;23.70;99.90;;;;;;5095002;28;20494;-68
2021/07/12 07:03:50;;;;;;;7.30;6.70;;;23.80;99.90;;;;;;5094890;28;20203;-67
2021/07/12 07:06:15;;;;;;;7.13;6.43;;;24.30;99.90;;;;;;5094768;28;20657;-68
2021/07/12 07:08:41;;;;;;;6.63;6.13;;;23.90;99.90;;;;;;5094775;28;20198;-68
2021/07/12 07:11:06;;;;;;;6.83;6.23;;;23.90;99.90;;;;;;5094833;28;20516;-68
2021/07/12 07:13:32;;;;;;;10.50;6.27;;;24.00;99.90;;;;;;5094914;28;20457;-68
2021/07/12 07:15:58;;;;;;;6.87;6.03;;;23.80;99.90;;;;;;5094801;28;20177;-68
2021/07/12 07:18:23;;;;;;;7.20;6.60;;;23.70;99.90;;;;;;5094543;28;20673;-68
2021/07/12 07:20:49;;;;;;;7.20;5.90;;;23.60;99.90;;;;;;5094504;28;20925;-68
2021/07/12 07:23:14;;;;;;;8.13;6.93;;;23.60;99.90;;;;;;5094627;28;20204;-68
2021/07/12 07:25:40;;;;;;;7.43;6.83;;;23.60;99.90;;;;;;5094841;28;20558;-68
2021/07/12 07:28:06;;;;;;;7.43;6.83;;;23.60;99.90;;;;;;5094635;28;20171;-67
2021/07/12 07:30:31;;;;;;;6.93;6.53;;;23.80;99.90;;;;;;5094610;28;20179;-70
2021/07/12 07:32:57;;;;;;;7.60;7.00;;;24.20;99.90;;;;;;5089666;28;20170;-67
2021/07/12 07:35:23;;;;;;;7.67;6.97;;;23.80;99.90;;;;;;5095041;28;20180;-68
2021/07/12 07:37:49;;;;;;;8.10;6.90;;;23.90;99.90;;;;;;5095067;28;20177;-68
2021/07/12 07:40:18;;;;;;;7.50;6.90;;;23.80;99.90;;;;;;5095333;28;20426;-69
2021/07/12 07:42:44;;;;;;;7.40;6.90;;;24.00;99.90;;;;;;5094250;28;20472;-74
2021/07/12 07:45:12;;;;;;;6.40;6.00;;;24.10;99.90;;;;;;5094261;28;20484;-67
2021/07/12 07:47:38;;;;;;;7.63;7.10;;;24.10;99.90;;;;;;5094233;28;20409;-67
2021/07/12 07:50:05;;;;;;;6.30;5.80;;;24.70;99.90;;;;;;5094736;28;20459;-71
2021/07/12 07:52:31;;;;;;;7.23;6.60;;;25.00;99.90;;;;;;5094169;28;20817;-69
2021/07/12 07:54:56;;;;;;;6.83;6.20;;;25.00;99.90;;;;;;5094098;28;20415;-67
2021/07/12 07:57:22;;;;;;;7.17;6.40;;;24.60;99.90;;;;;;5085992;28;20210;-67
2021/07/12 07:59:47;;;;;;;6.80;6.20;;;24.50;99.90;;;;;;5084340;28;20219;-67
2021/07/12 08:02:13;;;;;;;6.90;6.40;;;24.70;99.90;;;;;;5093681;28;20175;-67
2021/07/12 08:04:38;;;;;;;6.60;6.20;;;24.90;99.90;;;;;;5075978;28;20713;-68
2021/07/12 08:07:05;;;;;;;5.70;5.20;;;24.80;99.90;;;;;;5087801;28;20203;-67
2021/07/12 08:09:31;;;;;;;5.73;5.03;;;25.70;99.90;;;;;;5089763;28;20554;-68
2021/07/12 08:11:56;;;;;;;5.27;4.87;;;26.50;99.90;;;;;;5073394;28;20491;-68
2021/07/12 08:14:22;;;;;;;5.67;5.27;;;26.90;99.90;;;;;;5089247;28;20230;-68
2021/07/12 08:16:49;;;;;;;4.93;4.53;;;27.70;99.90;;;;;;5087309;28;20523;-70
2021/07/12 08:19:14;;;;;;;7.50;4.13;;;28.10;99.90;;;;;;5093322;28;20240;-67
2021/07/12 08:21:40;;;;;;;4.97;4.67;;;28.30;99.90;;;;;;5076276;28;20412;-68
2021/07/12 08:24:06;;;;;;;5.60;5.13;;;28.70;99.90;;;;;;5073732;28;20198;-68
2021/07/12 08:26:32;;;;;;;6.67;4.90;;;28.50;99.90;;;;;;5076635;28;20223;-70
2021/07/12 08:28:58;;;;;;;5.03;4.73;;;28.90;99.90;;;;;;5092919;28;20467;-70
2021/07/12 08:31:23;;;;;;;5.50;5.10;;;29.00;99.90;;;;;;5093232;28;20177;-69
2021/07/12 08:33:49;;;;;;;6.20;5.70;;;29.10;99.90;;;;;;5092858;28;20414;-69
2021/07/12 08:36:16;;;;;;;6.93;6.30;;;29.30;99.90;;;;;;5093162;28;20165;-70
2021/07/12 08:38:42;;;;;;;7.40;6.90;;;28.30;99.90;;;;;;5083315;28;20201;-70
2021/07/12 08:41:08;;;;;;;6.73;6.33;;;28.30;99.90;;;;;;5084435;28;20426;-69
2021/07/12 08:43:34;;;;;;;7.90;7.27;;;28.30;99.90;;;;;;5089143;28;20448;-69
2021/07/12 08:45:59;;;;;;;7.03;6.47;;;28.50;99.90;;;;;;5072885;28;20232;-69
2021/07/12 08:48:25;;;;;;;5.97;5.57;;;28.90;99.90;;;;;;5072945;28;20186;-71
2021/07/12 08:50:51;;;;;;;8.10;7.40;;;29.10;99.90;;;;;;5082795;28;20170;-70
2021/07/12 08:53:16;;;;;;;7.80;7.30;;;28.40;99.90;;;;;;5092728;28;20173;-70
2021/07/12 08:55:44;;;;;;;7.93;7.33;;;28.20;99.90;;;;;;5093311;28;20169;-70
2021/07/12 08:58:19;;;;;;;8.13;7.63;;;27.80;99.90;;;;;;5093044;28;20159;-71
2021/07/12 09:00:50;;;;;;;9.37;8.67;;;27.50;99.90;;;;;;5094716;28;20443;-69
2021/07/12 09:03:32;;;;;;;7.87;7.33;;;27.80;99.90;;;;;;5094286;28;20415;-70
2021/07/12 09:05:59;;;;;;;7.43;6.93;;;27.90;99.90;;;;;;5095191;28;20423;-69
2021/07/12 09:08:40;;;;;;;8.03;7.30;;;28.10;99.90;;;;;;5099516;28;20562;-70
2021/07/12 09:11:13;;;;;;;7.00;6.50;;;28.00;99.90;;;;;;5113334;28;20398;-70
2021/07/12 09:13:43;;;;;;;7.13;6.50;;;27.60;99.90;;;;;;5112744;28;20455;-71
2021/07/12 09:16:25;;;;;;;7.90;7.40;;;28.00;99.90;;;;;;5112235;28;20441;-70
2021/07/12 09:19:10;;;;;;;7.47;6.73;;;27.80;99.90;;;;;;5077674;28;20797;-70
2021/07/12 09:21:38;;;;;;;7.00;6.57;;;28.10;99.90;;;;;;5072373;28;20408;-70
2021/07/12 09:24:23;;;;;;;7.67;7.10;;;28.00;99.90;;;;;;5072216;28;20444;-69
2021/07/12 09:26:55;;;;;;;7.53;6.93;;;28.40;99.90;;;;;;5070976;28;20430;-68
2021/07/12 09:29:24;;;;;;;7.17;6.70;;;27.80;99.90;;;;;;5082801;28;20797;-71
2021/07/12 09:31:50;;;;;;;7.00;6.60;;;27.80;99.90;;;;;;5090866;28;20497;-74
2021/07/12 09:34:16;;;;;;;7.50;6.90;;;27.90;99.90;;;;;;5091188;28;20407;-72
2021/07/12 09:36:42;;;;;;;7.30;6.90;;;27.70;99.90;;;;;;5092948;28;20414;-70
2021/07/12 09:39:26;;;;;;;7.93;7.43;;;27.70;99.90;;;;;;5095815;28;20189;-70
2021/07/12 09:41:54;;;;;;;7.80;7.20;;;27.40;99.90;;;;;;5095230;28;20533;-70
2021/07/12 09:44:21;;;;;;;7.13;6.70;;;27.70;99.90;;;;;;5095930;28;20435;-69
2021/07/12 09:46:47;;;;;;;7.10;6.60;;;27.90;99.90;;;;;;5094182;28;20418;-69
2021/07/12 09:49:15;;;;;;;7.30;6.90;;;27.50;99.90;;;;;;5094834;28;20485;-70
2021/07/12 09:51:42;;;;;;;6.87;6.47;;;28.00;99.90;;;;;;5092451;28;20907;-70
2021/07/12 09:54:24;;;;;;;6.50;6.00;;;28.80;99.90;;;;;;5095100;28;20411;-70
2021/07/12 09:56:53;;;;;;;7.03;6.53;;;29.10;99.90;;;;;;5095060;28;20416;-69
2021/07/12 09:59:19;;;;;;;6.43;5.93;;;29.20;99.90;;;;;;5095084;28;20443;-70
2021/07/12 10:01:53;;;;;;;6.30;5.80;;;28.90;99.90;;;;;;5095380;28;20839;-69
2021/07/12 10:04:20;;;;;;;6.37;5.47;;;29.50;99.90;;;;;;5094164;28;20545;-69
2021/07/12 10:06:48;;;;;;;5.67;5.37;;;29.40;99.90;;;;;;5094671;28;20910;-69
2021/07/12 10:09:15;;;;;;;5.80;5.37;;;29.70;99.90;;;;;;5085333;28;20451;-69
2021/07/12 10:11:47;;;;;;;5.87;5.47;;;29.70;99.90;;;;;;5074533;28;20550;-69
2021/07/12 10:14:13;;;;;;;6.40;6.00;;;29.60;99.90;;;;;;5074800;28;20400;-69
2021/07/12 10:16:41;;;;;;;7.43;6.80;;;29.30;99.90;;;;;;5074804;28;20408;-68
2021/07/12 10:19:07;;;;;;;20.10;18.03;;;29.40;99.90;;;;;;5074213;28;20268;-69
2021/07/12 10:21:45;;;;;;;6.43;6.03;;;29.30;99.90;;;;;;5074480;28;20477;-69
2021/07/12 10:24:11;;;;;;;7.73;6.03;;;28.60;99.90;;;;;;5073085;28;20200;-71
2021/07/12 10:26:47;;;;;;;6.80;6.30;;;27.90;99.90;;;;;;5078447;28;20499;-69
2021/07/12 10:29:21;;;;;;;5.57;5.23;;;27.80;99.90;;;;;;5093297;28;20393;-69
2021/07/12 10:31:59;;;;;;;7.93;7.03;;;27.30;99.90;;;;;;5099247;28;20406;-69
2021/07/12 10:34:36;;;;;;;7.20;6.70;;;27.20;99.90;;;;;;5086215;28;20500;-69
2021/07/12 10:37:07;;;;;;;8.10;7.50;;;27.00;99.90;;;;;;5079039;28;20408;-70
2021/07/12 10:40:05;;;;;;;7.27;6.77;;;26.90;99.90;;;;;;5078460;28;20905;-69
2021/07/12 10:42:43;;;;;;;7.10;6.63;;;26.50;99.90;;;;;;5078630;28;20406;-69
2021/07/12 10:45:27;;;;;;;7.37;6.73;;;26.60;99.90;;;;;;5098656;28;20463;-69
2021/07/12 10:47:56;;;;;;;7.87;7.27;;;26.40;99.90;;;;;;5099220;28;20943;-69
2021/07/12 10:50:42;;;;;;;7.63;7.03;;;26.70;99.90;;;;;;5099502;28;20460;-69
2021/07/12 10:53:22;;;;;;;8.10;7.10;;;26.50;99.90;;;;;;5095328;28;20416;-69
2021/07/12 10:56:08;;;;;;;8.10;7.50;;;26.20;99.90;;;;;;5095067;28;20427;-69
2021/07/12 10:58:35;;;;;;;7.87;7.37;;;26.50;99.90;;;;;;5094294;28;20957;-68
2021/07/12 11:01:03;;;;;;;7.70;7.10;;;27.00;99.90;;;;;;5092419;28;20410;-69
2021/07/12 11:03:40;;;;;;;8.40;7.90;;;27.20;99.90;;;;;;5094448;28;20493;-69
2021/07/12 11:06:09;;;;;;;8.53;7.93;;;27.00;99.90;;;;;;5093071;28;20418;-70
2021/07/12 11:08:44;;;;;;;8.10;7.60;;;26.70;99.90;;;;;;5094860;28;20426;-69
2021/07/12 11:11:12;;;;;;;7.90;7.40;;;26.90;99.90;;;;;;5095288;28;20504;-69
2021/07/12 11:13:50;;;;;;;9.30;8.60;;;26.90;99.90;;;;;;5099206;28;20959;-69
2021/07/12 11:16:19;;;;;;;7.60;7.10;;;27.10;99.90;;;;;;5094004;28;20420;-69
2021/07/12 11:18:45;;;;;;;9.07;8.47;;;27.10;99.90;;;;;;5094512;28;20975;-69
2021/07/12 11:21:12;;;;;;;7.97;7.47;;;26.40;99.90;;;;;;5087665;28;20415;-67
2021/07/12 11:23:40;;;;;;;8.60;8.00;;;26.10;99.90;;;;;;5074520;28;20235;-68
2021/07/12 11:26:29;;;;;;;8.37;7.67;;;26.00;99.90;;;;;;5074556;28;20498;-68
2021/07/12 11:28:57;;;;;;;9.70;8.80;;;25.70;99.90;;;;;;5073928;28;20934;-68
2021/07/12 11:31:54;;;;;;;10.37;9.37;;;25.30;99.90;;;;;;5095740;28;20416;-68
2021/07/12 11:34:34;;;;;;;9.10;8.40;;;25.50;99.90;;;;;;5096600;28;20989;-68
2021/07/12 11:36:59;;;;;;;9.00;8.30;;;25.70;99.90;;;;;;5097367;28;20409;-68
2021/07/12 11:39:29;;;;;;;9.70;8.80;;;26.10;99.90;;;;;;5097643;28;20439;-68
2021/07/12 11:41:56;;;;;;;10.30;9.33;;;26.30;99.90;;;;;;5099090;28;20169;-69
2021/07/12 11:44:22;;;;;;;10.00;9.30;;;26.50;99.90;;;;;;5097425;28;20450;-68
2021/07/12 11:46:50;;;;;;;10.10;9.33;;;26.40;99.90;;;;;;5098099;28;20394;-69
2021/07/12 11:49:21;;;;;;;9.00;8.40;;;26.30;99.90;;;;;;5098281;28;20434;-69
2021/07/12 11:51:55;;;;;;;11.17;10.10;;;26.10;99.90;;;;;;5092016;28;20432;-68
2021/07/12 11:54:25;;;;;;;9.70;8.93;;;25.90;99.90;;;;;;5097961;28;20406;-69
2021/07/12 11:57:03;;;;;;;8.90;8.10;;;26.10;99.90;;;;;;5095332;28;20886;-68
2021/07/12 11:59:32;;;;;;;10.00;9.13;;;26.40;99.90;;;;;;5094370;28;20477;-69
2021/07/12 12:02:00;;;;;;;7.90;7.30;;;26.40;99.90;;;;;;5093456;28;20435;-69
2021/07/12 12:04:25;;;;;;;9.23;8.30;;;26.40;99.90;;;;;;5092759;28;20462;-70
2021/07/12 12:06:50;;;;;;;8.27;7.57;;;26.40;99.90;;;;;;5094288;28;20784;-69
2021/07/12 12:09:16;;;;;;;8.37;7.70;;;26.30;99.90;;;;;;5076093;28;20207;-70
2021/07/12 12:11:42;;;;;;;8.10;7.40;;;26.70;99.90;;;;;;5074777;28;20188;-69
2021/07/12 12:14:07;;;;;;;9.43;8.73;;;26.70;99.90;;;;;;5073445;28;20247;-70
2021/07/12 12:16:33;;;;;;;7.73;7.20;;;26.70;99.90;;;;;;5073351;28;20444;-70
2021/07/12 12:19:07;;;;;;;8.40;7.80;;;26.90;99.90;;;;;;5073880;28;20242;-71
2021/07/12 12:21:33;;;;;;;8.60;8.00;;;27.00;99.90;;;;;;5081148;28;20238;-71
2021/07/12 12:23:59;;;;;;;8.73;8.13;;;26.90;99.90;;;;;;5073171;28;20462;-70
2021/07/12 12:26:27;;;;;;;7.90;7.40;;;26.50;99.90;;;;;;5089480;28;20246;-70
2021/07/12 12:28:56;;;;;;;8.67;8.07;;;26.40;99.90;;;;;;5072926;28;20463;-70
2021/07/12 12:31:29;;;;;;;9.67;8.67;;;26.90;99.90;;;;;;5073122;28;20405;-70
2021/07/12 12:33:56;;;;;;;9.27;8.50;;;27.00;99.90;;;;;;5088111;28;20417;-70
2021/07/12 12:36:24;;;;;;;8.53;7.83;;;27.00;99.90;;;;;;5091937;28;20414;-69
2021/07/12 12:39:01;;;;;;;9.37;8.47;;;26.90;99.90;;;;;;5092247;28;20427;-69
2021/07/12 12:41:39;;;;;;;8.30;7.70;;;26.90;99.90;;;;;;5093068;28;20409;-70
2021/07/12 12:44:06;;;;;;;8.40;7.73;;;26.90;99.90;;;;;;5092829;28;20455;-69
2021/07/12 12:46:37;;;;;;;8.77;8.17;;;27.10;99.90;;;;;;5093267;28;20405;-70
2021/07/12 12:49:18;;;;;;;8.40;7.80;;;27.10;99.90;;;;;;5092280;28;20794;-69
2021/07/12 12:52:06;;;;;;;8.00;7.40;;;27.10;99.90;;;;;;5089864;28;20547;-70
2021/07/12 12:54:36;;;;;;;8.53;8.03;;;26.90;99.90;;;;;;5092787;28;20448;-70